createdAt,value
2019-03-29T00:01:40.757Z,14.70
2019-03-29T00:04:09.248Z,11.78
2019-03-29T00:06:39.488Z,13.15
2019-03-29T00:09:09.876Z,12.40
2019-03-29T00:11:38.937Z,12.23
2019-03-29T00:14:07.488Z,12.00
2019-03-29T00:16:35.828Z,16.17
2019-03-29T00:19:04.748Z,13.00
2019-03-29T00:21:35.287Z,14.43
2019-03-29T00:24:07.029Z,13.05
2019-03-29T00:26:36.236Z,14.98
2019-03-29T00:29:04.648Z,11.03
2019-03-29T00:31:33.397Z,13.43
2019-03-29T00:34:02.188Z,12.37
2019-03-29T00:36:32.508Z,12.45
2019-03-29T00:39:01.008Z,13.83
2019-03-29T00:41:29.468Z,13.88
2019-03-29T00:43:58.210Z,13.18
2019-03-29T00:46:27.008Z,15.43
2019-03-29T00:48:55.648Z,12.68
2019-03-29T00:51:24.972Z,11.12
2019-03-29T00:53:53.818Z,12.55
2019-03-29T00:56:22.328Z,11.65
2019-03-29T00:58:51.209Z,13.28
2019-03-29T01:01:19.999Z,13.05
2019-03-29T01:03:48.980Z,12.18
2019-03-29T01:06:19.153Z,11.43
2019-03-29T01:08:48.089Z,12.55
2019-03-29T01:11:16.568Z,13.10
2019-03-29T01:13:45.058Z,14.13
2019-03-29T01:16:13.646Z,12.28
2019-03-29T01:18:43.768Z,11.97
2019-03-29T01:21:12.487Z,12.50
2019-03-29T01:23:41.217Z,12.88
2019-03-29T01:26:10.146Z,10.93
2019-03-29T01:28:39.015Z,12.45
2019-03-29T01:31:09.134Z,12.65
2019-03-29T01:33:37.517Z,14.40
2019-03-29T01:36:08.052Z,13.20
2019-03-29T01:38:36.946Z,11.80
2019-03-29T01:41:05.826Z,11.90
2019-03-29T01:43:35.282Z,11.85
2019-03-29T01:46:04.655Z,14.18
2019-03-29T01:48:33.386Z,12.75
2019-03-29T01:51:02.307Z,11.63
2019-03-29T01:53:31.087Z,12.93
2019-03-29T01:55:59.686Z,13.55
2019-03-29T01:58:28.603Z,16.05
2019-03-29T02:00:57.576Z,11.08
2019-03-29T02:03:26.555Z,11.73
2019-03-29T02:05:55.547Z,13.00
2019-03-29T02:08:35.116Z,13.98
2019-03-29T02:10:54.566Z,12.30
2019-03-29T02:13:23.227Z,13.65
2019-03-29T02:15:52.147Z,11.83
2019-03-29T02:18:21.027Z,13.20
2019-03-29T02:20:50.144Z,14.83
2019-03-29T02:23:20.657Z,12.47
2019-03-29T02:25:49.360Z,12.28
2019-03-29T02:28:18.975Z,11.57
2019-03-29T02:30:47.929Z,13.13
2019-03-29T02:33:16.828Z,12.88
2019-03-29T02:35:45.730Z,12.00
2019-03-29T02:38:14.422Z,13.05
2019-03-29T02:40:43.188Z,13.00
2019-03-29T02:43:13.728Z,12.68
2019-03-29T02:45:42.628Z,11.40
2019-03-29T02:48:11.608Z,13.18
2019-03-29T02:50:40.509Z,14.13
2019-03-29T02:53:09.378Z,12.00
2019-03-29T02:55:38.178Z,11.65
2019-03-29T02:58:08.306Z,12.68
2019-03-29T03:00:36.789Z,15.55
2019-03-29T03:03:05.687Z,11.97
2019-03-29T03:05:36.016Z,12.45
2019-03-29T03:08:06.025Z,12.40
2019-03-29T03:10:34.919Z,13.40
2019-03-29T03:13:05.235Z,12.70
2019-03-29T03:15:35.141Z,13.53
2019-03-29T03:18:03.638Z,12.95
2019-03-29T03:20:32.511Z,14.73
2019-03-29T03:23:02.638Z,13.58
2019-03-29T03:25:31.412Z,12.53
2019-03-29T03:28:00.307Z,13.25
2019-03-29T03:30:28.730Z,11.93
2019-03-29T03:32:57.711Z,11.22
2019-03-29T03:35:28.207Z,13.35
2019-03-29T03:38:00.067Z,12.43
2019-03-29T03:40:30.389Z,14.03
2019-03-29T03:42:58.797Z,12.88
2019-03-29T03:45:27.597Z,11.45
2019-03-29T03:47:57.597Z,12.20
2019-03-29T03:50:30.667Z,11.63
2019-03-29T03:52:59.569Z,12.00
2019-03-29T03:55:28.466Z,12.33
2019-03-29T03:57:57.872Z,14.03
2019-03-29T04:00:30.327Z,10.58
2019-03-29T04:02:58.727Z,12.73
2019-03-29T04:05:27.687Z,13.98
2019-03-29T04:07:56.710Z,11.55
2019-03-29T04:10:25.592Z,11.90
2019-03-29T04:12:54.467Z,12.82
2019-03-29T04:15:23.366Z,11.28
2019-03-29T04:17:52.148Z,12.37
2019-03-29T04:20:20.571Z,13.70
2019-03-29T04:22:49.411Z,11.25
2019-03-29T04:25:18.311Z,13.93
2019-03-29T04:27:46.717Z,12.35
2019-03-29T04:30:15.468Z,13.08
2019-03-29T04:32:46.190Z,12.47
2019-03-29T04:35:14.587Z,12.50
2019-03-29T04:37:43.477Z,13.48
2019-03-29T04:40:12.378Z,13.90
2019-03-29T04:42:41.165Z,12.07
2019-03-29T04:45:09.937Z,11.08
2019-03-29T04:47:38.427Z,14.33
2019-03-29T04:50:07.527Z,13.85
2019-03-29T04:52:38.057Z,12.82
2019-03-29T04:55:06.828Z,12.70
2019-03-29T04:57:56.315Z,14.68
2019-03-29T05:00:25.059Z,13.48
2019-03-29T05:02:53.677Z,12.40
2019-03-29T05:05:22.457Z,10.98
2019-03-29T05:07:51.357Z,13.20
2019-03-29T05:10:21.742Z,12.10
2019-03-29T05:12:55.913Z,12.35
2019-03-29T05:15:32.045Z,13.60
2019-03-29T05:18:02.488Z,11.65
2019-03-29T05:20:32.597Z,13.18
2019-03-29T05:23:01.498Z,11.70
2019-03-29T05:25:29.977Z,14.38
2019-03-29T05:27:58.559Z,11.53
2019-03-29T05:30:27.336Z,12.18
2019-03-29T05:32:55.837Z,12.07
2019-03-29T05:35:24.237Z,12.60
2019-03-29T05:37:52.719Z,12.18
2019-03-29T05:40:34.379Z,13.20
2019-03-29T05:42:53.147Z,10.55
2019-03-29T05:45:23.148Z,14.58
2019-03-29T05:47:51.887Z,12.23
2019-03-29T05:50:21.137Z,13.43
2019-03-29T05:52:52.787Z,11.95
2019-03-29T05:55:32.376Z,14.43
2019-03-29T05:57:54.083Z,12.70
2019-03-29T06:00:22.786Z,14.73
2019-03-29T06:02:51.278Z,12.18
2019-03-29T06:05:19.751Z,12.58
2019-03-29T06:07:49.336Z,11.97
2019-03-29T06:10:19.779Z,17.27
2019-03-29T06:12:48.485Z,12.93
2019-03-29T06:15:21.098Z,13.90
2019-03-29T06:17:52.679Z,13.48
2019-03-29T06:20:23.538Z,13.80
2019-03-29T06:22:54.228Z,13.83
2019-03-29T06:25:26.103Z,14.78
2019-03-29T06:27:56.306Z,17.95
2019-03-29T06:30:36.049Z,15.32
2019-03-29T06:33:08.085Z,13.70
2019-03-29T06:35:40.004Z,14.20
2019-03-29T06:38:14.487Z,14.53
2019-03-29T06:41:01.587Z,19.57
2019-03-29T06:43:21.395Z,15.53
2019-03-29T06:45:53.617Z,22.15
2019-03-29T06:48:30.357Z,17.27
2019-03-29T06:51:03.929Z,20.80
2019-03-29T06:53:52.773Z,21.82
2019-03-29T06:56:24.157Z,23.35
2019-03-29T06:58:54.997Z,22.82
2019-03-29T07:01:28.707Z,25.85
2019-03-29T07:03:59.097Z,26.07
2019-03-29T07:06:30.493Z,28.57
2019-03-29T07:09:01.617Z,28.40
2019-03-29T07:11:33.749Z,28.83
2019-03-29T07:14:05.018Z,25.82
2019-03-29T07:16:35.148Z,30.68
2019-03-29T07:19:07.101Z,25.20
2019-03-29T07:21:36.056Z,25.92
2019-03-29T07:24:06.207Z,27.62
2019-03-29T07:26:38.067Z,33.13
2019-03-29T07:29:09.507Z,28.50
2019-03-29T07:31:37.647Z,33.70
2019-03-29T07:34:06.097Z,33.73
2019-03-29T07:36:38.107Z,37.33
2019-03-29T07:39:08.265Z,34.40
2019-03-29T07:41:40.117Z,34.58
2019-03-29T07:44:11.684Z,29.15
2019-03-29T07:46:40.377Z,29.42
2019-03-29T07:49:09.087Z,26.30
2019-03-29T07:51:40.987Z,30.70
2019-03-29T07:54:13.277Z,32.93
2019-03-29T07:56:42.608Z,40.43
2019-03-29T07:59:11.047Z,32.00
2019-03-29T08:01:42.697Z,33.63
2019-03-29T08:04:13.155Z,39.53
2019-03-29T08:06:46.377Z,39.03
2019-03-29T08:09:22.513Z,33.50
2019-03-29T08:11:47.010Z,38.02
2019-03-29T08:14:15.895Z,27.90
2019-03-29T08:16:44.768Z,28.67
2019-03-29T08:19:15.315Z,29.32
2019-03-29T08:21:45.458Z,30.17
2019-03-29T08:24:13.878Z,28.57
2019-03-29T08:26:42.667Z,38.23
2019-03-29T08:29:12.707Z,25.48
2019-03-29T08:31:41.586Z,26.82
2019-03-29T08:34:10.477Z,32.10
2019-03-29T08:36:39.247Z,27.17
2019-03-29T08:39:10.179Z,22.85
2019-03-29T08:41:38.787Z,27.02
2019-03-29T08:44:07.688Z,23.95
2019-03-29T08:46:36.567Z,23.22
2019-03-29T08:49:05.048Z,26.57
2019-03-29T08:51:33.843Z,22.82
2019-03-29T08:54:04.475Z,23.55
2019-03-29T08:59:01.648Z,20.23
2019-03-29T09:01:32.787Z,23.38
2019-03-29T09:04:05.604Z,23.22
2019-03-29T09:06:33.630Z,24.47
2019-03-29T09:09:02.695Z,25.32
2019-03-29T09:11:32.497Z,22.30
2019-03-29T09:14:01.447Z,18.77
2019-03-29T09:16:30.116Z,19.65
2019-03-29T09:18:59.017Z,20.45
2019-03-29T09:21:27.507Z,20.62
2019-03-29T09:23:56.390Z,17.70
2019-03-29T09:26:25.279Z,27.20
2019-03-29T09:28:53.857Z,18.30
2019-03-29T09:31:24.287Z,18.60
2019-03-29T09:33:54.106Z,17.45
2019-03-29T09:36:22.607Z,20.50
2019-03-29T09:38:51.347Z,16.82
2019-03-29T09:41:19.726Z,16.75
2019-03-29T09:43:48.527Z,17.80
2019-03-29T09:46:17.297Z,15.30
2019-03-29T09:48:46.307Z,16.48
2019-03-29T09:51:15.215Z,16.00
2019-03-29T09:53:43.888Z,13.75
2019-03-29T09:56:12.775Z,17.87
2019-03-29T09:58:44.785Z,15.78
2019-03-29T10:01:11.902Z,17.62
2019-03-29T10:03:42.330Z,16.02
2019-03-29T10:06:11.097Z,13.43
2019-03-29T10:08:39.804Z,13.98
2019-03-29T10:11:08.687Z,13.72
2019-03-29T10:13:37.587Z,17.12
2019-03-29T10:16:06.067Z,15.10
2019-03-29T10:18:34.947Z,13.15
2019-03-29T10:21:03.423Z,17.57
2019-03-29T10:23:32.007Z,12.10
2019-03-29T10:26:00.587Z,10.55
2019-03-29T10:28:29.475Z,14.60
2019-03-29T10:30:58.388Z,13.18
2019-03-29T10:33:26.807Z,13.30
2019-03-29T10:35:55.663Z,12.20
2019-03-29T10:38:24.499Z,14.73
2019-03-29T10:40:53.427Z,10.72
2019-03-29T10:43:22.307Z,9.13
2019-03-29T10:45:50.688Z,13.83
2019-03-29T10:48:20.157Z,12.85
2019-03-29T10:50:49.186Z,16.50
2019-03-29T10:53:18.097Z,14.28
2019-03-29T10:55:48.307Z,12.03
2019-03-29T10:58:16.699Z,14.90
2019-03-29T11:00:45.686Z,23.87
2019-03-29T11:03:14.579Z,10.35
2019-03-29T11:05:43.570Z,11.97
2019-03-29T11:08:12.538Z,11.18
2019-03-29T11:10:43.187Z,11.53
2019-03-29T11:13:13.566Z,11.50
2019-03-29T11:15:43.118Z,13.40
2019-03-29T11:18:11.597Z,12.80
2019-03-29T11:20:40.588Z,12.25
2019-03-29T11:23:10.407Z,10.78
2019-03-29T11:25:40.130Z,11.30
2019-03-29T11:28:10.227Z,10.50
2019-03-29T11:30:42.782Z,10.60
2019-03-29T11:33:12.417Z,14.03
2019-03-29T11:35:41.157Z,14.50
2019-03-29T11:38:12.099Z,12.03
2019-03-29T11:40:42.275Z,13.88
2019-03-29T11:43:10.736Z,10.72
2019-03-29T11:45:43.233Z,13.93
2019-03-29T11:48:17.217Z,10.00
2019-03-29T11:50:52.168Z,11.95
2019-03-29T11:53:23.058Z,10.78
2019-03-29T11:55:53.235Z,14.00
2019-03-29T11:58:25.708Z,11.12
2019-03-29T12:00:57.557Z,11.12
2019-03-29T12:03:29.206Z,10.68
2019-03-29T12:08:56.912Z,11.03
2019-03-29T12:11:25.184Z,13.20
2019-03-29T12:13:55.085Z,10.72
2019-03-29T12:16:27.758Z,11.07
2019-03-29T12:18:57.387Z,10.35
2019-03-29T12:21:25.796Z,9.85
2019-03-29T12:23:54.177Z,11.22
2019-03-29T12:26:27.619Z,12.03
2019-03-29T12:29:02.514Z,14.60
2019-03-29T12:31:35.028Z,9.73
2019-03-29T12:34:04.482Z,10.55
2019-03-29T12:36:36.860Z,10.70
2019-03-29T12:39:10.015Z,9.00
2019-03-29T12:41:43.828Z,10.63
2019-03-29T12:44:16.177Z,9.13
2019-03-29T12:46:47.855Z,9.25
2019-03-29T12:49:16.446Z,10.70
2019-03-29T12:51:46.908Z,12.25
2019-03-29T12:54:17.687Z,11.97
2019-03-29T12:56:48.397Z,10.23
2019-03-29T13:01:47.740Z,9.00
2019-03-29T13:04:17.347Z,11.93
2019-03-29T13:06:45.947Z,8.33
2019-03-29T13:09:17.357Z,8.60
2019-03-29T13:11:45.480Z,10.10
2019-03-29T13:14:19.136Z,7.95
2019-03-29T13:16:49.663Z,7.92
2019-03-29T13:19:21.647Z,9.93
2019-03-29T13:21:53.907Z,10.25
2019-03-29T13:24:23.945Z,7.47
2019-03-29T13:26:56.106Z,8.28
2019-03-29T13:29:27.548Z,7.12
2019-03-29T13:32:01.766Z,6.95
2019-03-29T13:34:32.007Z,9.78
2019-03-29T13:37:03.426Z,7.22
2019-03-29T13:39:35.897Z,7.50
2019-03-29T13:42:08.377Z,11.55
2019-03-29T13:44:39.426Z,7.95
2019-03-29T13:47:09.246Z,8.25
2019-03-29T13:49:41.186Z,7.97
2019-03-29T13:52:13.473Z,7.60
2019-03-29T13:54:42.406Z,7.50
2019-03-29T13:57:13.912Z,6.75
2019-03-29T13:59:44.016Z,7.00
2019-03-29T14:02:15.267Z,8.95
2019-03-29T14:04:44.268Z,8.43
2019-03-29T14:07:16.249Z,8.55
2019-03-29T14:09:49.133Z,7.12
2019-03-29T14:12:21.009Z,6.90
2019-03-29T14:14:51.087Z,8.98
2019-03-29T14:17:20.628Z,6.62
2019-03-29T14:19:52.778Z,7.75
2019-03-29T14:22:21.546Z,10.08
2019-03-29T14:24:54.100Z,7.33
2019-03-29T14:27:23.746Z,6.87
2019-03-29T14:30:03.582Z,8.13
2019-03-29T14:32:25.928Z,7.62
2019-03-29T14:34:54.277Z,7.22
2019-03-29T14:37:23.832Z,10.25
2019-03-29T14:39:57.726Z,6.33
2019-03-29T14:42:26.910Z,7.80
2019-03-29T14:44:56.521Z,8.65
2019-03-29T14:47:38.135Z,10.80
2019-03-29T14:49:57.179Z,8.93
2019-03-29T14:52:28.829Z,6.20
2019-03-29T14:55:01.427Z,7.05
2019-03-29T14:57:30.220Z,7.80
2019-03-29T14:59:59.689Z,8.25
2019-03-29T15:02:32.195Z,9.90
2019-03-29T15:05:04.329Z,5.45
2019-03-29T15:07:34.880Z,10.38
2019-03-29T15:10:05.659Z,7.87
2019-03-29T15:15:09.109Z,7.87
2019-03-29T15:17:39.132Z,15.80
2019-03-29T15:20:09.379Z,12.25
2019-03-29T15:22:41.560Z,11.80
2019-03-29T15:25:11.370Z,8.05
2019-03-29T15:27:39.830Z,11.80
2019-03-29T15:30:10.790Z,11.35
2019-03-29T15:32:41.686Z,16.07
2019-03-29T15:35:10.995Z,18.30
2019-03-29T15:37:39.708Z,14.33
2019-03-29T15:40:09.290Z,8.73
2019-03-29T15:42:39.720Z,12.93
2019-03-29T15:45:19.814Z,13.40
2019-03-29T15:47:40.365Z,11.97
2019-03-29T15:55:11.490Z,12.07
2019-03-29T15:57:43.820Z,19.45
2019-03-29T16:00:14.640Z,16.65
2019-03-29T16:02:49.998Z,13.80
2019-03-29T16:05:22.364Z,16.80
2019-03-29T16:07:53.930Z,12.05
2019-03-29T16:10:23.549Z,12.07
2019-03-29T16:12:56.209Z,14.23
2019-03-29T16:15:35.044Z,15.50
2019-03-29T16:17:55.520Z,16.30
2019-03-29T16:20:27.492Z,21.27
2019-03-29T16:22:59.641Z,11.03
2019-03-29T16:25:30.161Z,13.08
2019-03-29T16:28:03.906Z,12.78
2019-03-29T16:30:37.091Z,11.45
2019-03-29T16:33:08.340Z,15.78
2019-03-29T16:35:38.432Z,13.90
2019-03-29T16:38:12.760Z,8.78
2019-03-29T16:40:42.660Z,12.53
2019-03-29T16:43:14.130Z,10.10
2019-03-29T16:45:48.009Z,10.08
2019-03-29T16:50:47.250Z,11.30
2019-03-29T16:53:20.340Z,8.10
2019-03-29T16:55:52.710Z,10.10
2019-03-29T16:58:22.630Z,10.00
2019-03-29T17:00:55.510Z,7.23
2019-03-29T17:03:25.233Z,14.05
2019-03-29T17:06:04.451Z,10.20
2019-03-29T17:08:33.540Z,9.55
2019-03-29T17:11:06.180Z,9.48
2019-03-29T17:13:39.965Z,12.18
2019-03-29T17:16:13.437Z,10.82
2019-03-29T17:18:44.271Z,10.15
2019-03-29T17:23:45.200Z,12.85
2019-03-29T17:26:15.949Z,9.73
2019-03-29T17:28:45.171Z,11.93
2019-03-29T17:31:18.050Z,8.58
2019-03-29T17:33:49.169Z,8.95
2019-03-29T17:36:21.188Z,11.30
2019-03-29T17:38:50.550Z,8.50
2019-03-29T17:41:20.918Z,8.03
2019-03-29T17:43:50.490Z,8.95
2019-03-29T17:46:19.682Z,5.53
2019-03-29T17:48:52.857Z,7.20
2019-03-29T17:51:23.900Z,8.08
2019-03-29T17:53:53.105Z,9.93
2019-03-29T17:56:25.200Z,5.80
2019-03-29T17:58:56.430Z,9.28
2019-03-29T18:01:28.459Z,8.50
2019-03-29T18:03:57.579Z,5.97
2019-03-29T18:06:30.052Z,8.70
2019-03-29T18:09:01.100Z,8.05
2019-03-29T18:11:32.350Z,7.15
2019-03-29T18:14:03.591Z,9.25
2019-03-29T18:16:32.370Z,10.38
2019-03-29T18:19:02.165Z,7.30
2019-03-29T18:21:32.620Z,9.98
2019-03-29T18:24:01.911Z,8.18
2019-03-29T18:26:33.550Z,8.98
2019-03-29T18:29:03.271Z,11.93
2019-03-29T18:31:36.779Z,9.13
2019-03-29T18:34:07.910Z,10.85
2019-03-29T18:36:36.310Z,6.28
2019-03-29T18:39:07.051Z,7.35
2019-03-29T18:44:10.450Z,7.42
2019-03-29T18:46:44.818Z,8.43
2019-03-29T18:49:13.859Z,11.40
2019-03-29T18:54:21.160Z,8.75
2019-03-29T18:56:50.260Z,11.05
2019-03-29T18:59:23.240Z,13.05
2019-03-29T19:01:54.680Z,10.78
2019-03-29T19:04:25.846Z,10.85
2019-03-29T19:06:56.572Z,6.72
2019-03-29T19:09:31.519Z,7.05
2019-03-29T19:11:59.383Z,5.50
2019-03-29T19:14:28.679Z,7.30
2019-03-29T19:17:00.740Z,12.20
2019-03-29T19:19:31.779Z,9.43
2019-03-29T19:22:03.891Z,9.70
2019-03-29T19:24:32.307Z,8.43
2019-03-29T19:27:01.731Z,6.78
2019-03-29T19:29:42.612Z,9.60
2019-03-29T19:32:15.270Z,7.92
2019-03-29T19:34:45.084Z,12.07
2019-03-29T19:37:15.920Z,14.45
2019-03-29T19:39:48.000Z,15.00
2019-03-29T19:42:31.110Z,9.75
2019-03-29T19:45:01.358Z,15.13
2019-03-29T19:47:30.111Z,9.10
2019-03-29T19:50:00.970Z,17.35
2019-03-29T19:52:30.681Z,13.60
2019-03-29T19:55:01.286Z,12.18
2019-03-29T19:59:58.650Z,9.35
2019-03-29T20:02:30.550Z,9.05
2019-03-29T20:05:00.402Z,13.30
2019-03-29T20:07:31.500Z,9.53
2019-03-29T20:10:02.832Z,18.50
2019-03-29T20:12:31.724Z,11.28
2019-03-29T20:15:03.480Z,12.00
2019-03-29T20:17:34.421Z,10.25
2019-03-29T20:20:04.958Z,11.12
2019-03-29T20:22:37.340Z,6.75
2019-03-29T20:25:09.300Z,12.75
2019-03-29T20:27:42.991Z,6.78
2019-03-29T20:30:11.496Z,10.05
2019-03-29T20:32:42.119Z,8.45
2019-03-29T20:35:12.119Z,7.80
2019-03-29T20:37:41.580Z,6.53
2019-03-29T20:40:10.940Z,13.05
2019-03-29T20:42:47.712Z,9.28
2019-03-29T20:45:18.560Z,9.08
2019-03-29T20:47:51.000Z,10.30
2019-03-29T20:50:22.273Z,10.65
2019-03-29T20:52:53.940Z,8.18
2019-03-29T20:55:23.211Z,8.48
2019-03-29T20:57:52.410Z,6.70
2019-03-29T21:00:21.954Z,5.65
2019-03-29T21:03:03.490Z,9.63
2019-03-29T21:05:35.270Z,10.15
2019-03-29T21:08:13.309Z,8.45
2019-03-29T21:10:55.058Z,7.25
2019-03-29T21:13:14.040Z,5.75
2019-03-29T21:15:43.311Z,5.90
2019-03-29T21:18:17.322Z,7.87
2019-03-29T21:20:44.989Z,6.65
2019-03-29T21:23:16.979Z,9.83
2019-03-29T21:25:47.361Z,7.35
2019-03-29T21:28:24.259Z,7.30
2019-03-29T21:30:58.180Z,6.58
2019-03-29T21:33:31.218Z,6.92
2019-03-29T21:36:06.810Z,5.42
2019-03-29T21:38:48.690Z,8.53
2019-03-29T21:41:19.070Z,6.58
2019-03-29T21:44:00.710Z,13.53
2019-03-29T21:46:40.359Z,5.60
2019-03-29T21:49:15.539Z,7.15
2019-03-29T21:51:45.919Z,7.25
2019-03-29T21:54:30.749Z,9.98
2019-03-29T21:57:01.732Z,6.15
2019-03-29T21:59:37.326Z,7.33
2019-03-29T22:02:10.989Z,5.50
2019-03-29T22:04:44.606Z,6.35
2019-03-29T22:07:15.329Z,8.60
2019-03-29T22:09:46.158Z,7.70
2019-03-29T22:14:51.514Z,8.65
2019-03-29T22:17:23.889Z,8.75
2019-03-29T22:19:56.139Z,6.15
2019-03-29T22:22:25.030Z,7.12
2019-03-29T22:24:55.633Z,6.72
2019-03-29T22:27:29.311Z,5.62
2019-03-29T22:29:57.840Z,5.42
2019-03-29T22:32:29.341Z,5.78
2019-03-29T22:37:50.770Z,8.53
2019-03-29T22:40:21.570Z,4.87
2019-03-29T22:45:23.150Z,4.85
2019-03-29T22:47:54.180Z,5.78
2019-03-29T22:50:29.230Z,5.65
2019-03-29T22:53:01.079Z,6.60
2019-03-29T22:55:33.800Z,6.35
2019-03-29T22:58:07.330Z,5.92
2019-03-29T23:00:41.822Z,5.72
2019-03-29T23:03:11.850Z,7.97
2019-03-29T23:05:40.259Z,6.10
2019-03-29T23:08:09.737Z,6.28
2019-03-29T23:10:45.340Z,6.33
2019-03-29T23:13:15.572Z,5.50
2019-03-29T23:15:44.291Z,7.12
2019-03-29T23:18:14.651Z,8.10
2019-03-29T23:20:47.156Z,6.30
2019-03-29T23:23:16.156Z,5.35
2019-03-29T23:25:48.056Z,6.83
2019-03-29T23:28:16.491Z,5.17
2019-03-29T23:30:47.222Z,5.40
2019-03-29T23:35:47.766Z,5.97
2019-03-29T23:38:19.583Z,5.47
2019-03-29T23:40:48.041Z,5.00
2019-03-29T23:43:19.952Z,5.80
2019-03-29T23:45:48.561Z,4.87
2019-03-29T23:48:19.183Z,5.15
2019-03-29T23:50:51.352Z,6.30
2019-03-29T23:53:19.681Z,4.90
2019-03-29T23:55:48.511Z,5.22
2019-03-29T23:58:17.103Z,4.92
